createdAt,value
2023-04-11T00:01:00.862Z,100511.78
2023-04-11T00:03:29.318Z,100501.84
2023-04-11T00:05:57.620Z,100500.81
2023-04-11T00:08:26.096Z,100487.78
2023-04-11T00:11:00.891Z,100486.28
2023-04-11T00:13:29.001Z,100484.75
2023-04-11T00:15:59.321Z,100486.72
2023-04-11T00:18:28.625Z,100472.13
2023-04-11T00:21:03.253Z,100470.66
2023-04-11T00:23:31.501Z,100461.22
2023-04-11T00:26:01.046Z,100462.19
2023-04-11T00:28:29.162Z,100457.19
2023-04-11T00:30:57.229Z,100458.03
2023-04-11T00:33:27.251Z,100444.97
2023-04-11T00:35:55.530Z,100440.81
2023-04-11T00:38:23.663Z,100439.97
2023-04-11T00:40:51.926Z,100435.53
2023-04-11T00:43:23.642Z,100428.75
2023-04-11T00:45:52.784Z,100428.75
2023-04-11T00:48:21.496Z,100424.44
2023-04-11T00:50:51.610Z,100417.34
2023-04-11T00:53:19.712Z,100411.41
2023-04-11T00:55:48.053Z,100400.00
2023-04-11T00:58:18.061Z,100394.84
2023-04-11T01:00:50.068Z,100396.53
2023-04-11T01:03:19.606Z,100392.91
2023-04-11T01:05:52.423Z,100396.38
2023-04-11T01:08:22.514Z,100396.22
2023-04-11T01:10:50.830Z,100379.56
2023-04-11T01:13:28.927Z,100381.22
2023-04-11T01:15:58.655Z,100379.22
2023-04-11T01:18:26.864Z,100374.91
2023-04-11T01:20:55.471Z,100373.94
2023-04-11T01:23:26.046Z,100357.44
2023-04-11T01:25:56.731Z,100360.06
2023-04-11T01:28:24.929Z,100362.88
2023-04-11T01:30:53.158Z,100351.63
2023-04-11T01:33:22.271Z,100351.47
2023-04-11T01:35:58.344Z,100344.69
2023-04-11T01:38:28.049Z,100334.78
2023-04-11T01:40:57.176Z,100330.50
2023-04-11T01:43:25.562Z,100330.50
2023-04-11T01:45:55.249Z,100332.16
2023-04-11T01:48:23.669Z,100325.75
2023-04-11T01:50:53.176Z,100316.81
2023-04-11T01:53:21.443Z,100310.38
2023-04-11T01:55:51.147Z,100302.47
2023-04-11T01:58:19.192Z,100302.31
2023-04-11T02:00:47.880Z,100297.84
2023-04-11T02:03:17.650Z,100294.91
2023-04-11T02:05:46.392Z,100285.19
2023-04-11T02:08:14.692Z,100286.69
2023-04-11T02:10:45.476Z,100289.00
2023-04-11T02:13:15.140Z,100268.53
2023-04-11T02:15:55.549Z,100268.53
2023-04-11T02:18:24.392Z,100266.56
2023-04-11T02:20:52.986Z,100256.00
2023-04-11T02:23:21.843Z,100269.06
2023-04-11T02:25:51.188Z,100260.16
2023-04-11T02:28:21.150Z,100257.50
2023-04-11T02:30:57.311Z,100254.03
2023-04-11T02:33:26.305Z,100249.56
2023-04-11T02:35:54.393Z,100243.78
2023-04-11T02:38:22.854Z,100242.78
2023-04-11T02:40:51.061Z,100234.03
2023-04-11T02:43:20.564Z,100233.19
2023-04-11T02:45:49.723Z,100226.78
2023-04-11T02:48:17.993Z,100228.44
2023-04-11T02:50:46.176Z,100223.16
2023-04-11T02:53:15.113Z,100221.19
2023-04-11T02:55:43.508Z,100213.09
2023-04-11T02:58:25.989Z,100200.56
2023-04-11T03:00:54.213Z,100200.56
2023-04-11T03:03:23.581Z,100180.91
2023-04-11T03:05:51.916Z,100182.56
2023-04-11T03:08:20.055Z,100176.97
2023-04-11T03:11:03.114Z,100174.16
2023-04-11T03:13:32.736Z,100169.56
2023-04-11T03:16:01.296Z,100165.56
2023-04-11T03:18:30.822Z,100158.31
2023-04-11T03:20:58.904Z,100142.16
2023-04-11T03:23:27.059Z,100126.94
2023-04-11T03:25:55.526Z,100123.47
2023-04-11T03:28:24.225Z,100131.75
2023-04-11T03:30:54.586Z,100133.22
2023-04-11T03:33:31.551Z,100125.16
2023-04-11T03:35:59.692Z,100123.00
2023-04-11T03:38:27.994Z,100116.41
2023-04-11T03:40:56.391Z,100114.09
2023-04-11T03:43:27.985Z,100122.38
2023-04-11T03:45:57.755Z,100109.66
2023-04-11T03:48:31.084Z,100111.78
2023-04-11T03:50:59.300Z,100098.09
2023-04-11T03:53:35.022Z,100094.13
2023-04-11T03:56:04.314Z,100088.16
2023-04-11T03:58:36.461Z,100093.78
2023-04-11T04:01:06.817Z,100088.81
2023-04-11T04:03:36.561Z,100094.59
2023-04-11T04:06:06.367Z,100088.31
2023-04-11T04:08:34.900Z,100076.41
2023-04-11T04:11:03.111Z,100077.75
2023-04-11T04:13:37.791Z,100074.06
2023-04-11T04:16:08.882Z,100073.91
2023-04-11T04:18:38.439Z,100060.69
2023-04-11T04:21:08.660Z,100064.16
2023-04-11T04:23:39.474Z,100057.88
2023-04-11T04:26:09.399Z,100057.69
2023-04-11T04:28:37.608Z,100061.19
2023-04-11T04:31:08.792Z,100057.38
2023-04-11T04:33:36.985Z,100047.44
2023-04-11T04:36:05.821Z,100039.81
2023-04-11T04:38:38.564Z,100047.25
2023-04-11T04:41:15.196Z,100040.63
2023-04-11T04:43:43.757Z,100033.34
2023-04-11T04:46:13.318Z,100030.34
2023-04-11T04:48:41.880Z,100029.19
2023-04-11T04:51:10.127Z,100029.00
2023-04-11T04:53:39.045Z,100023.03
2023-04-11T04:56:08.286Z,100030.63
2023-04-11T04:58:36.664Z,100021.50
2023-04-11T05:01:04.996Z,100022.16
2023-04-11T05:03:35.870Z,100005.13
2023-04-11T05:06:04.328Z,100001.47
2023-04-11T05:08:34.764Z,100006.41
2023-04-11T05:11:02.900Z,100002.75
2023-04-11T05:13:32.772Z,100001.41
2023-04-11T05:16:01.113Z,100003.56
2023-04-11T05:18:30.720Z,99998.09
2023-04-11T05:21:00.475Z,99996.06
2023-04-11T05:23:28.715Z,99998.38
2023-04-11T05:25:56.932Z,99996.38
2023-04-11T05:28:25.208Z,99992.22
2023-04-11T05:30:53.383Z,99996.00
2023-04-11T05:33:22.008Z,99997.28
2023-04-11T05:35:50.268Z,99996.63
2023-04-11T05:38:23.490Z,99984.97
2023-04-11T05:40:51.672Z,99977.69
2023-04-11T05:43:19.853Z,99979.47
2023-04-11T05:45:48.999Z,99971.13
2023-04-11T05:48:17.412Z,99975.75
2023-04-11T05:50:46.050Z,99964.91
2023-04-11T05:53:17.152Z,99962.91
2023-04-11T05:55:46.928Z,99965.50
2023-04-11T05:58:15.332Z,99957.81
2023-04-11T06:00:43.672Z,99961.22
2023-04-11T06:03:33.302Z,99957.50
2023-04-11T06:06:01.735Z,99949.44
2023-04-11T06:08:31.030Z,99936.94
2023-04-11T06:11:00.645Z,99937.31
2023-04-11T06:13:28.921Z,99936.88
2023-04-11T06:15:57.782Z,99938.53
2023-04-11T06:18:26.347Z,99921.47
2023-04-11T06:20:55.074Z,99925.84
2023-04-11T06:23:23.991Z,99917.59
2023-04-11T06:25:53.680Z,99925.09
2023-04-11T06:28:23.264Z,99934.03
2023-04-11T06:30:52.366Z,99923.34
2023-04-11T06:33:24.047Z,99920.44
2023-04-11T06:35:52.260Z,99919.53
2023-04-11T06:38:21.035Z,99910.84
2023-04-11T06:40:51.640Z,99909.94
2023-04-11T06:43:19.785Z,99905.13
2023-04-11T06:45:50.324Z,99903.56
2023-04-11T06:48:20.497Z,99891.53
2023-04-11T06:50:50.010Z,99897.94
2023-04-11T06:53:18.168Z,99895.94
2023-04-11T06:55:49.848Z,99887.81
2023-04-11T06:58:17.994Z,99879.88
2023-04-11T07:00:46.247Z,99878.25
2023-04-11T07:03:15.943Z,99882.19
2023-04-11T07:05:44.316Z,99879.31
2023-04-11T07:08:12.649Z,99871.97
2023-04-11T07:10:40.854Z,99858.31
2023-04-11T07:13:09.025Z,99855.25
2023-04-11T07:15:37.159Z,99853.44
2023-04-11T07:18:06.680Z,99854.06
2023-04-11T07:20:37.126Z,99850.38
2023-04-11T07:23:05.429Z,99855.09
2023-04-11T07:25:35.730Z,99852.44
2023-04-11T07:28:08.481Z,99844.41
2023-04-11T07:30:39.538Z,99842.38
2023-04-11T07:33:07.718Z,99841.13
2023-04-11T07:35:37.378Z,99832.50
2023-04-11T07:38:05.618Z,99843.56
2023-04-11T07:40:33.710Z,99840.22
2023-04-11T07:43:02.819Z,99831.16
2023-04-11T07:45:31.472Z,99833.41
2023-04-11T07:47:59.709Z,99829.72
2023-04-11T07:50:28.374Z,99827.22
2023-04-11T07:52:57.843Z,99822.66
2023-04-11T07:55:26.666Z,99827.34
2023-04-11T07:57:55.091Z,99832.28
2023-04-11T08:00:24.564Z,99827.31
2023-04-11T08:02:53.286Z,99816.19
2023-04-11T08:05:22.060Z,99831.22
2023-04-11T08:07:52.739Z,99823.97
2023-04-11T08:10:22.901Z,99821.22
2023-04-11T08:12:51.297Z,99821.75
2023-04-11T08:15:20.863Z,99815.34
2023-04-11T08:17:52.619Z,99817.94
2023-04-11T08:20:22.841Z,99818.78
2023-04-11T08:22:51.288Z,99804.25
2023-04-11T08:25:30.664Z,99804.00
2023-04-11T08:27:58.784Z,99800.81
2023-04-11T08:30:32.537Z,99789.97
2023-04-11T08:33:00.878Z,99791.09
2023-04-11T08:35:33.990Z,99786.63
2023-04-11T08:38:02.189Z,99783.28
2023-04-11T08:40:39.911Z,99782.44
2023-04-11T08:43:12.387Z,99766.81
2023-04-11T08:45:41.251Z,99770.69
2023-04-11T08:48:12.440Z,99777.53
2023-04-11T08:50:42.159Z,99770.75
2023-04-11T08:53:10.798Z,99771.00
2023-04-11T08:55:47.886Z,99762.66
2023-04-11T08:58:18.421Z,99741.94
2023-04-11T09:00:47.076Z,99748.69
2023-04-11T09:03:17.753Z,99750.44
2023-04-11T09:05:46.787Z,99739.75
2023-04-11T09:08:17.704Z,99746.47
2023-04-11T09:10:48.203Z,99734.13
2023-04-11T09:13:22.480Z,99742.13
2023-04-11T09:16:06.132Z,99740.63
2023-04-11T09:18:36.610Z,99742.25
2023-04-11T09:21:12.189Z,99734.72
2023-04-11T09:23:40.707Z,99732.94
2023-04-11T09:26:13.190Z,99733.78
2023-04-11T09:28:45.053Z,99724.94
2023-04-11T09:31:14.264Z,99726.91
2023-04-11T09:33:54.833Z,99723.47
2023-04-11T09:36:24.927Z,99721.44
2023-04-11T09:38:54.082Z,99705.72
2023-04-11T09:41:38.359Z,99712.47
2023-04-11T09:44:06.698Z,99703.00
2023-04-11T09:46:35.479Z,99704.50
2023-04-11T09:49:04.949Z,99705.16
2023-04-11T09:51:36.998Z,99704.66
2023-04-11T09:54:06.607Z,99705.34
2023-04-11T09:56:36.496Z,99702.72
2023-04-11T09:59:06.738Z,99697.34
2023-04-11T10:01:35.134Z,99694.53
2023-04-11T10:04:04.656Z,99699.72
2023-04-11T10:06:38.910Z,99694.75
2023-04-11T10:09:09.764Z,99698.25
2023-04-11T10:11:42.585Z,99691.03
2023-04-11T10:14:10.948Z,99686.56
2023-04-11T10:17:22.004Z,99666.88
2023-04-11T10:19:52.675Z,99660.16
2023-04-11T10:23:00.667Z,99656.03
2023-04-11T10:25:30.939Z,99657.78
2023-04-11T10:28:02.149Z,99651.09
2023-04-11T10:31:00.608Z,99650.38
2023-04-11T10:33:32.260Z,99655.34
2023-04-11T10:36:03.811Z,99643.19
2023-04-11T10:38:48.936Z,99637.69
2023-04-11T10:41:27.031Z,99642.94
2023-04-11T10:44:21.118Z,99632.75
2023-04-11T10:46:52.132Z,99629.03
2023-04-11T10:49:36.547Z,99637.72
2023-04-11T10:52:30.123Z,99630.97
2023-04-11T10:55:18.288Z,99612.63
2023-04-11T10:58:05.785Z,99625.69
2023-04-11T11:01:25.881Z,99617.66
2023-04-11T11:04:07.063Z,99616.41
2023-04-11T11:06:47.353Z,99614.88
2023-04-11T11:09:24.306Z,99621.22
2023-04-11T11:12:09.097Z,99610.69
2023-04-11T11:14:43.724Z,99604.16
2023-04-11T11:17:20.439Z,99607.38
2023-04-11T11:19:50.517Z,99597.81
2023-04-11T11:22:25.640Z,99592.91
2023-04-11T11:24:54.598Z,99594.59
2023-04-11T11:27:25.276Z,99600.59
2023-04-11T11:29:53.967Z,99605.53
2023-04-11T11:32:25.310Z,99585.28
2023-04-11T11:34:55.652Z,99599.59
2023-04-11T11:37:24.048Z,99606.09
2023-04-11T11:39:52.745Z,99590.41
2023-04-11T11:42:21.350Z,99603.13
2023-04-11T11:44:49.483Z,99600.72
2023-04-11T11:47:17.986Z,99579.66
2023-04-11T11:49:47.967Z,99586.25
2023-04-11T11:52:36.554Z,99601.19
2023-04-11T11:55:09.622Z,99597.44
2023-04-11T11:57:41.761Z,99591.00
2023-04-11T12:00:38.692Z,99593.19
2023-04-11T12:03:06.009Z,99580.50
2023-04-11T12:05:35.990Z,99582.91
2023-04-11T12:08:07.498Z,99588.06
2023-04-11T12:10:40.637Z,99574.50
2023-04-11T12:13:16.528Z,99572.31
2023-04-11T12:15:48.316Z,99587.19
2023-04-11T12:18:20.935Z,99571.75
2023-04-11T12:20:49.582Z,99573.09
2023-04-11T12:23:19.529Z,99580.91
2023-04-11T12:25:50.642Z,99575.47
2023-04-11T12:28:21.366Z,99564.34
2023-04-11T12:30:49.578Z,99568.06
2023-04-11T12:33:17.664Z,99565.63
2023-04-11T12:35:45.983Z,99554.28
2023-04-11T12:38:17.411Z,99565.97
2023-04-11T12:40:50.995Z,99559.50
2023-04-11T12:43:21.813Z,99551.97
2023-04-11T12:45:50.202Z,99549.84
2023-04-11T12:48:18.800Z,99550.41
2023-04-11T12:50:47.090Z,99555.31
2023-04-11T12:53:15.159Z,99552.34
2023-04-11T12:55:45.274Z,99544.47
2023-04-11T12:58:14.861Z,99549.38
2023-04-11T13:00:43.022Z,99545.84
2023-04-11T13:03:11.426Z,99539.63
2023-04-11T13:05:39.707Z,99548.81
2023-04-11T13:08:08.301Z,99535.00
2023-04-11T13:10:36.657Z,99534.47
2023-04-11T13:13:18.005Z,99540.44
2023-04-11T13:15:48.022Z,99529.59
2023-04-11T13:18:16.440Z,99536.94
2023-04-11T13:20:44.644Z,99537.19
2023-04-11T13:24:04.971Z,99542.59
2023-04-11T13:26:33.422Z,99535.31
2023-04-11T13:29:01.597Z,99532.31
2023-04-11T13:31:31.271Z,99530.16
2023-04-11T13:33:59.824Z,99532.31
2023-04-11T13:36:28.365Z,99536.06
2023-04-11T13:38:57.783Z,99537.13
2023-04-11T13:41:26.934Z,99536.31
2023-04-11T13:43:56.192Z,99529.28
2023-04-11T13:46:24.493Z,99530.34
2023-04-11T13:48:54.350Z,99542.78
2023-04-11T13:51:22.630Z,99540.56
2023-04-11T13:53:51.247Z,99541.94
2023-04-11T13:56:20.659Z,99534.91
2023-04-11T13:58:48.874Z,99548.38
2023-04-11T14:01:17.286Z,99534.84
2023-04-11T14:03:45.633Z,99534.03
2023-04-11T14:06:17.647Z,99538.63
2023-04-11T14:08:45.935Z,99534.00
2023-04-11T14:11:14.187Z,99536.16
2023-04-11T14:13:42.450Z,99535.31
2023-04-11T14:16:11.154Z,99531.50
2023-04-11T14:18:39.743Z,99535.84
2023-04-11T14:21:12.148Z,99530.09
2023-04-11T14:23:41.782Z,99529.53
2023-04-11T14:26:11.874Z,99540.88
2023-04-11T14:28:40.341Z,99525.47
2023-04-11T14:31:09.825Z,99534.66
2023-04-11T14:33:38.117Z,99536.00
2023-04-11T14:36:15.363Z,99543.03
2023-04-11T14:38:45.183Z,99536.81
2023-04-11T14:41:13.553Z,99529.78
2023-04-11T14:43:44.554Z,99541.91
2023-04-11T14:46:12.891Z,99538.91
2023-04-11T14:48:41.242Z,99527.25
2023-04-11T14:51:10.829Z,99531.47
2023-04-11T14:53:39.218Z,99540.28
2023-04-11T14:56:11.842Z,99545.63
2023-04-11T14:58:41.446Z,99536.69
2023-04-11T15:01:10.657Z,99532.09
2023-04-11T15:03:39.011Z,99537.50
2023-04-11T15:06:09.391Z,99536.13
2023-04-11T15:08:37.674Z,99533.69
2023-04-11T15:11:06.871Z,99531.75
2023-04-11T15:13:36.847Z,99536.59
2023-04-11T15:16:05.932Z,99539.50
2023-04-11T15:18:36.360Z,99549.50
2023-04-11T15:21:07.237Z,99539.78
2023-04-11T15:23:35.797Z,99546.19
2023-04-11T15:26:05.090Z,99545.09
2023-04-11T15:28:34.934Z,99547.28
2023-04-11T15:31:06.650Z,99549.16
2023-04-11T15:33:35.281Z,99555.38
2023-04-11T15:36:03.547Z,99542.38
2023-04-11T15:38:31.850Z,99538.06
2023-04-11T15:41:03.358Z,99540.44
2023-04-11T15:43:32.254Z,99545.78
2023-04-11T15:46:02.214Z,99543.53
2023-04-11T15:48:33.269Z,99552.38
2023-04-11T15:51:02.556Z,99548.03
2023-04-11T15:53:30.924Z,99538.28
2023-04-11T15:55:59.068Z,99542.63
2023-04-11T15:58:27.794Z,99550.13
2023-04-11T16:01:01.571Z,99550.63
2023-04-11T16:03:36.175Z,99545.81
2023-04-11T16:06:06.024Z,99554.16
2023-04-11T16:08:34.385Z,99553.84
2023-04-11T16:11:03.839Z,99556.19
2023-04-11T16:13:32.171Z,99558.84
2023-04-11T16:16:03.391Z,99559.59
2023-04-11T16:18:33.888Z,99553.88
2023-04-11T16:21:02.478Z,99553.31
2023-04-11T16:23:30.654Z,99549.44
2023-04-11T16:25:58.884Z,99557.78
2023-04-11T16:28:26.986Z,99555.81
2023-04-11T16:30:56.499Z,99564.97
2023-04-11T16:33:25.348Z,99561.50
2023-04-11T16:35:55.065Z,99570.88
2023-04-11T16:38:23.535Z,99574.31
2023-04-11T16:40:51.721Z,99570.72
2023-04-11T16:43:19.830Z,99570.59
2023-04-11T16:45:47.993Z,99576.91
2023-04-11T16:48:16.296Z,99582.97
2023-04-11T16:50:44.605Z,99588.84
2023-04-11T16:53:14.272Z,99577.66
2023-04-11T16:55:46.089Z,99584.25
2023-04-11T16:58:14.287Z,99583.06
2023-04-11T17:00:44.082Z,99591.44
2023-04-11T17:03:13.346Z,99608.31
2023-04-11T17:05:41.839Z,99587.22
2023-04-11T17:08:09.992Z,99592.66
2023-04-11T17:10:39.695Z,99594.09
2023-04-11T17:13:07.925Z,99589.03
2023-04-11T17:15:36.227Z,99587.78
2023-04-11T17:18:04.611Z,99596.72
2023-04-11T17:20:32.858Z,99597.34
2023-04-11T17:23:04.467Z,99601.69
2023-04-11T17:25:32.672Z,99604.16
2023-04-11T17:28:02.306Z,99606.41
2023-04-11T17:30:33.958Z,99608.88
2023-04-11T17:33:02.278Z,99610.84
2023-04-11T17:35:30.512Z,99604.81
2023-04-11T17:37:58.849Z,99619.97
2023-04-11T17:40:27.232Z,99604.72
2023-04-11T17:42:57.753Z,99602.72
2023-04-11T17:45:29.902Z,99610.31
2023-04-11T17:47:58.435Z,99610.19
2023-04-11T17:50:27.155Z,99614.41
2023-04-11T17:52:55.261Z,99619.41
2023-04-11T17:55:23.500Z,99619.50
2023-04-11T17:57:53.876Z,99622.19
2023-04-11T18:00:23.598Z,99622.66
2023-04-11T18:02:57.870Z,99625.59
2023-04-11T18:05:29.486Z,99621.50
2023-04-11T18:07:59.914Z,99627.66
2023-04-11T18:10:29.546Z,99626.03
2023-04-11T18:13:00.576Z,99627.09
2023-04-11T18:15:29.546Z,99630.22
2023-04-11T18:18:00.897Z,99625.56
2023-04-11T18:20:29.075Z,99632.66
2023-04-11T18:22:57.807Z,99634.16
2023-04-11T18:25:25.932Z,99638.97
2023-04-11T18:27:54.100Z,99644.19
2023-04-11T18:30:22.223Z,99638.91
2023-04-11T18:32:52.404Z,99641.69
2023-04-11T18:35:22.684Z,99641.75
2023-04-11T18:37:51.406Z,99643.94
2023-04-11T18:40:19.662Z,99646.56
2023-04-11T18:42:51.604Z,99655.50
2023-04-11T18:45:22.009Z,99656.03
2023-04-11T18:47:51.114Z,99658.00
2023-04-11T18:50:21.756Z,99659.09
2023-04-11T18:52:54.695Z,99657.19
2023-04-11T18:55:24.842Z,99660.16
2023-04-11T18:57:56.083Z,99648.31
2023-04-11T19:00:25.351Z,99656.44
2023-04-11T19:02:54.241Z,99668.69
2023-04-11T19:05:25.538Z,99670.81
2023-04-11T19:07:53.936Z,99663.91
2023-04-11T19:10:22.588Z,99669.53
2023-04-11T19:12:50.748Z,99672.47
2023-04-11T19:15:20.763Z,99675.81
2023-04-11T19:17:50.646Z,99687.59
2023-04-11T19:20:19.341Z,99675.13
2023-04-11T19:22:48.889Z,99679.25
2023-04-11T19:25:17.443Z,99685.63
2023-04-11T19:27:47.294Z,99700.28
2023-04-11T19:30:15.900Z,99703.56
2023-04-11T19:32:46.133Z,99706.47
2023-04-11T19:35:15.524Z,99704.06
2023-04-11T19:37:49.073Z,99704.69
2023-04-11T19:40:18.840Z,99699.97
2023-04-11T19:42:46.955Z,99696.50
2023-04-11T19:45:15.953Z,99717.03
2023-04-11T19:47:44.051Z,99712.97
2023-04-11T19:50:14.358Z,99711.34
2023-04-11T19:52:43.976Z,99714.00
2023-04-11T19:55:13.056Z,99719.16
2023-04-11T19:57:43.835Z,99713.41
2023-04-11T20:00:14.435Z,99717.78
2023-04-11T20:02:45.958Z,99725.38
2023-04-11T20:05:16.315Z,99723.13
2023-04-11T20:07:45.215Z,99715.31
2023-04-11T20:10:14.748Z,99724.59
2023-04-11T20:12:44.383Z,99721.13
2023-04-11T20:15:18.985Z,99718.88
2023-04-11T20:17:53.536Z,99722.78
2023-04-11T20:20:22.137Z,99721.94
2023-04-11T20:22:50.196Z,99721.94
2023-04-11T20:25:18.545Z,99728.53
2023-04-11T20:27:48.404Z,99727.91
2023-04-11T20:30:17.924Z,99727.91
2023-04-11T20:32:46.548Z,99722.00
2023-04-11T20:35:14.904Z,99731.44
2023-04-11T20:37:46.160Z,99731.66
2023-04-11T20:40:14.803Z,99736.78
2023-04-11T20:42:46.112Z,99737.66
2023-04-11T20:45:18.212Z,99748.94
2023-04-11T20:47:47.814Z,99745.88
2023-04-11T20:50:19.440Z,99755.34
2023-04-11T20:52:50.706Z,99746.72
2023-04-11T20:55:18.960Z,99736.88
2023-04-11T20:57:47.027Z,99741.19
2023-04-11T21:00:18.634Z,99745.72
2023-04-11T21:02:50.084Z,99751.47
2023-04-11T21:05:22.556Z,99757.59
2023-04-11T21:07:51.709Z,99755.97
2023-04-11T21:10:21.065Z,99757.59
2023-04-11T21:12:51.875Z,99761.69
2023-04-11T21:15:22.470Z,99755.34
2023-04-11T21:17:52.373Z,99759.84
2023-04-11T21:20:22.853Z,99762.72
2023-04-11T21:22:53.011Z,99762.53
2023-04-11T21:25:21.902Z,99769.28
2023-04-11T21:27:50.072Z,99764.53
2023-04-11T21:30:18.712Z,99770.69
2023-04-11T21:32:48.358Z,99774.59
2023-04-11T21:35:16.528Z,99767.84
2023-04-11T21:37:45.999Z,99781.38
2023-04-11T21:40:16.393Z,99775.22
2023-04-11T21:42:44.554Z,99780.56
2023-04-11T21:45:15.463Z,99778.91
2023-04-11T21:47:46.068Z,99787.50
2023-04-11T21:50:15.788Z,99792.44
2023-04-11T21:52:44.723Z,99793.88
2023-04-11T21:55:13.619Z,99800.84
2023-04-11T21:57:42.014Z,99800.44
2023-04-11T22:00:13.983Z,99800.44
2023-04-11T22:02:42.474Z,99802.31
2023-04-11T22:05:15.264Z,99792.44
2023-04-11T22:07:48.781Z,99790.34
2023-04-11T22:10:23.575Z,99796.94
2023-04-11T22:12:53.989Z,99801.25
2023-04-11T22:15:24.207Z,99795.50
2023-04-11T22:17:54.717Z,99798.59
2023-04-11T22:20:24.578Z,99795.72
2023-04-11T22:22:57.169Z,99787.72
2023-04-11T22:25:25.560Z,99793.66
2023-04-11T22:27:54.902Z,99794.50
2023-04-11T22:30:24.491Z,99792.44
2023-04-11T22:32:54.460Z,99787.69
2023-04-11T22:35:23.436Z,99783.78
2023-04-11T22:37:53.791Z,99796.94
2023-04-11T22:40:23.309Z,99801.84
2023-04-11T22:42:52.383Z,99802.06
2023-04-11T22:45:21.541Z,99800.22
2023-04-11T22:47:54.154Z,99797.75
2023-04-11T22:50:22.793Z,99798.78
2023-04-11T22:52:51.423Z,99800.22
2023-04-11T22:55:25.136Z,99803.69
2023-04-11T22:57:54.095Z,99797.53
2023-04-11T23:00:24.225Z,99790.75
2023-04-11T23:02:52.668Z,99793.84
2023-04-11T23:05:20.957Z,99789.31
2023-04-11T23:07:49.220Z,99795.94
2023-04-11T23:10:29.094Z,99798.38
2023-04-11T23:12:57.917Z,99802.69
2023-04-11T23:15:26.734Z,99804.94
2023-04-11T23:17:56.666Z,99809.03
2023-04-11T23:20:24.898Z,99810.88
2023-04-11T23:22:53.340Z,99818.69
2023-04-11T23:25:24.683Z,99810.91
2023-04-11T23:27:54.359Z,99818.13
2023-04-11T23:30:22.625Z,99820.53
2023-04-11T23:32:51.353Z,99816.84
2023-04-11T23:35:20.857Z,99827.31
2023-04-11T23:37:49.098Z,99822.59
2023-04-11T23:40:17.383Z,99818.91
2023-04-11T23:42:45.603Z,99820.97
2023-04-11T23:45:22.616Z,99818.50
2023-04-11T23:47:51.098Z,99818.69
2023-04-11T23:50:19.449Z,99814.19
2023-04-11T23:52:47.827Z,99816.66
2023-04-11T23:55:16.678Z,99815.22
2023-04-11T23:57:44.982Z,99813.59
